Time;durP1;ratioP1;P1;durP2;ratioP2;P2;SDS_P1;SDS_P2;PMS_P1;PMS_P2;Temp;Humidity;BMP_temperature;BMP_pressure;BME280_temperature;BME280_humidity;BME280_pressure;Samples;Min_cycle;Max_cycle;Signal;HPM_P1;HPM_P2
2022/03/18 00:00:46;;;;;;;;;;;4.50;99.90;;;;;;2078427;28;20625;-68
2022/03/18 00:01:48;;;;;;;;;;;4.50;99.90;;;;;;2079992;28;19909;-68
2022/03/18 00:02:49;;;;;;;;;;;4.50;99.90;;;;;;2083482;28;19991;-68
2022/03/18 00:03:49;;;;;;;;;;;4.50;99.90;;;;;;2080255;28;19916;-68
2022/03/18 00:04:50;;;;;;;;;;;4.50;99.90;;;;;;2082106;28;19913;-68
2022/03/18 00:05:51;;;;;;;;;;;4.50;99.90;;;;;;2079919;28;19959;-68
2022/03/18 00:06:51;;;;;;;;;;;4.50;99.90;;;;;;2078422;28;19999;-68
2022/03/18 00:07:52;;;;;;;;;;;4.40;99.90;;;;;;2083468;28;20011;-68
2022/03/18 00:08:52;;;;;;;;;;;4.40;99.90;;;;;;2082227;28;19917;-68
2022/03/18 00:09:54;;;;;;;;;;;4.40;99.90;;;;;;2079528;28;19916;-68
2022/03/18 00:10:55;;;;;;;;;;;4.40;99.90;;;;;;2083068;28;20608;-68
2022/03/18 00:11:56;;;;;;;;;;;4.40;99.90;;;;;;2081283;28;19939;-68
2022/03/18 00:12:57;;;;;;;;;;;4.40;99.90;;;;;;2081518;28;19916;-68
2022/03/18 00:13:58;;;;;;;;;;;4.40;99.90;;;;;;2080322;28;19912;-68
2022/03/18 00:14:59;;;;;;;;;;;4.40;99.90;;;;;;2081461;28;19905;-68
2022/03/18 00:16:00;;;;;;;;;;;4.40;99.90;;;;;;2077132;28;19948;-68
2022/03/18 00:17:00;;;;;;;;;;;4.40;99.90;;;;;;2080415;28;20555;-68
2022/03/18 00:18:01;;;;;;;;;;;4.40;99.90;;;;;;2079714;28;19913;-68
2022/03/18 00:19:01;;;;;;;;;;;4.30;99.90;;;;;;2085522;28;20003;-68
2022/03/18 00:20:03;;;;;;;;;;;4.30;99.90;;;;;;2081537;28;19955;-68
2022/03/18 00:21:06;;;;;;;;;;;4.30;99.90;;;;;;2081345;28;20316;-68
2022/03/18 00:22:07;;;;;;;;;;;4.30;99.90;;;;;;2077743;28;19917;-68
2022/03/18 00:23:08;;;;;;;;;;;4.30;99.90;;;;;;2081218;28;19979;-68
2022/03/18 00:24:08;;;;;;;;;;;4.30;99.90;;;;;;2080529;28;19905;-68
2022/03/18 00:25:13;;;;;;;;;;;4.30;99.90;;;;;;2079725;28;19919;-68
2022/03/18 00:26:14;;;;;;;;;;;4.30;99.90;;;;;;2082652;28;20306;-68
2022/03/18 00:27:14;;;;;;;;;;;4.30;99.90;;;;;;2082673;28;19992;-68
2022/03/18 00:28:15;;;;;;;;;;;4.30;99.90;;;;;;2082783;28;19912;-68
2022/03/18 00:29:15;;;;;;;;;;;4.30;99.90;;;;;;2080665;28;19940;-68
2022/03/18 00:30:16;;;;;;;;;;;4.20;99.90;;;;;;2079469;28;19910;-68
2022/03/18 00:31:17;;;;;;;;;;;4.20;99.90;;;;;;2081121;28;19908;-68
2022/03/18 00:32:17;;;;;;;;;;;4.20;99.90;;;;;;2077419;28;19913;-68
2022/03/18 00:33:20;;;;;;;;;;;4.20;99.90;;;;;;2080511;28;20271;-68
2022/03/18 00:34:21;;;;;;;;;;;4.20;99.90;;;;;;2079541;28;19948;-68
2022/03/18 00:35:21;;;;;;;;;;;4.20;99.90;;;;;;2081792;28;19905;-68
2022/03/18 00:36:21;;;;;;;;;;;4.20;99.90;;;;;;2082040;28;20385;-68
2022/03/18 00:37:22;;;;;;;;;;;4.20;99.90;;;;;;2080059;28;19912;-68
2022/03/18 00:38:22;;;;;;;;;;;4.20;99.90;;;;;;2081984;28;19924;-68
2022/03/18 00:39:23;;;;;;;;;;;4.10;99.90;;;;;;2081385;28;19944;-68
2022/03/18 00:40:23;;;;;;;;;;;4.10;99.90;;;;;;2076638;28;19925;-68
2022/03/18 00:41:24;;;;;;;;;;;4.10;99.90;;;;;;2076142;28;19905;-68
2022/03/18 00:42:25;;;;;;;;;;;4.10;99.90;;;;;;2077243;28;19909;-68
2022/03/18 00:43:25;;;;;;;;;;;4.10;99.90;;;;;;2082152;28;19950;-68
2022/03/18 00:44:26;;;;;;;;;;;4.10;99.90;;;;;;2082298;28;19932;-68
2022/03/18 00:45:26;;;;;;;;;;;4.10;99.90;;;;;;2079002;28;20271;-68
2022/03/18 00:46:27;;;;;;;;;;;4.10;99.90;;;;;;2080535;28;19909;-68
2022/03/18 00:52:44;;;;;;;;;;;4.00;99.90;;;;;;2081374;28;19952;-68
2022/03/18 00:53:45;;;;;;;;;;;4.00;99.90;;;;;;2081074;28;19909;-68
2022/03/18 00:54:46;;;;;;;;;;;4.00;99.90;;;;;;2079111;28;19905;-68
2022/03/18 00:55:47;;;;;;;;;;;4.00;99.90;;;;;;2076846;28;19909;-68
2022/03/18 00:56:47;;;;;;;;;;;4.00;99.90;;;;;;2079703;28;20443;-68
2022/03/18 00:57:48;;;;;;;;;;;4.00;99.90;;;;;;2083168;28;19913;-68
2022/03/18 00:58:48;;;;;;;;;;;4.00;99.90;;;;;;2082133;28;20336;-68
2022/03/18 00:59:49;;;;;;;;;;;4.00;99.90;;;;;;2081309;28;19915;-68
2022/03/18 01:00:49;;;;;;;;;;;4.00;99.90;;;;;;2080858;28;19909;-68
2022/03/18 01:01:52;;;;;;;;;;;3.90;99.90;;;;;;2081503;28;19952;-68
2022/03/18 01:02:53;;;;;;;;;;;3.90;99.90;;;;;;2075895;28;19925;-68
2022/03/18 01:03:53;;;;;;;;;;;3.90;99.90;;;;;;2080622;28;20003;-68
2022/03/18 01:04:54;;;;;;;;;;;3.90;99.90;;;;;;2078595;28;19909;-68
2022/03/18 01:05:54;;;;;;;;;;;3.90;99.90;;;;;;2082581;28;19909;-68
2022/03/18 01:06:56;;;;;;;;;;;3.90;99.90;;;;;;2082728;28;19920;-68
2022/03/18 01:07:56;;;;;;;;;;;3.90;99.90;;;;;;2084319;28;19912;-68
2022/03/18 01:08:57;;;;;;;;;;;3.90;99.90;;;;;;2083644;28;19913;-68
2022/03/18 01:09:58;;;;;;;;;;;3.90;99.90;;;;;;2081312;28;20275;-68
2022/03/18 01:11:01;;;;;;;;;;;3.90;99.90;;;;;;2076527;28;19909;-68
2022/03/18 01:12:04;;;;;;;;;;;3.80;99.90;;;;;;2080255;28;20603;-68
2022/03/18 01:13:04;;;;;;;;;;;3.80;99.90;;;;;;2079945;28;20000;-68
2022/03/18 01:14:05;;;;;;;;;;;3.80;99.90;;;;;;2082973;28;20372;-68
2022/03/18 01:15:05;;;;;;;;;;;3.90;99.90;;;;;;2083006;28;19913;-68
2022/03/18 01:16:06;;;;;;;;;;;3.80;99.90;;;;;;2079788;28;19905;-68
2022/03/18 01:17:06;;;;;;;;;;;3.80;99.90;;;;;;2079590;28;19910;-68
2022/03/18 01:18:07;;;;;;;;;;;3.80;99.90;;;;;;2080750;28;19935;-68
2022/03/18 01:19:08;;;;;;;;;;;3.80;99.90;;;;;;2082314;28;20283;-68
2022/03/18 01:20:09;;;;;;;;;;;3.80;99.90;;;;;;2080095;28;19909;-68
2022/03/18 01:21:09;;;;;;;;;;;3.80;99.90;;;;;;2076202;28;19909;-68
2022/03/18 01:22:10;;;;;;;;;;;3.70;99.90;;;;;;2081392;28;19913;-68
2022/03/18 01:23:11;;;;;;;;;;;3.80;99.90;;;;;;2081953;28;19909;-68
2022/03/18 01:24:11;;;;;;;;;;;3.70;99.90;;;;;;2078252;28;19912;-68
2022/03/18 01:25:12;;;;;;;;;;;3.80;99.90;;;;;;2084168;28;20058;-68
2022/03/18 01:26:12;;;;;;;;;;;3.70;99.90;;;;;;2081316;28;20799;-68
2022/03/18 01:27:12;;;;;;;;;;;3.70;99.90;;;;;;2077687;28;20336;-68
2022/03/18 01:28:13;;;;;;;;;;;3.70;99.90;;;;;;2079934;28;19967;-68
2022/03/18 01:29:13;;;;;;;;;;;3.70;99.90;;;;;;2080764;28;20356;-68
2022/03/18 01:30:14;;;;;;;;;;;3.70;99.90;;;;;;2082067;28;19909;-68
2022/03/18 01:31:15;;;;;;;;;;;3.70;99.90;;;;;;2079997;28;20594;-68
2022/03/18 01:32:15;;;;;;;;;;;3.70;99.90;;;;;;2080574;28;19913;-68
2022/03/18 01:33:15;;;;;;;;;;;3.70;99.90;;;;;;2081504;28;19927;-68
2022/03/18 01:34:16;;;;;;;;;;;3.70;99.90;;;;;;2078625;28;19908;-68
2022/03/18 01:35:16;;;;;;;;;;;3.70;99.90;;;;;;2078838;28;19909;-68
2022/03/18 01:36:17;;;;;;;;;;;3.70;99.90;;;;;;2082334;28;19913;-68
2022/03/18 01:37:17;;;;;;;;;;;3.60;99.90;;;;;;2077869;28;19909;-68
2022/03/18 01:38:18;;;;;;;;;;;3.60;99.90;;;;;;2078691;28;19909;-68
2022/03/18 01:39:18;;;;;;;;;;;3.70;99.90;;;;;;2085364;28;19919;-68
2022/03/18 01:40:19;;;;;;;;;;;3.60;99.90;;;;;;2084447;28;19916;-69
2022/03/18 01:41:19;;;;;;;;;;;3.60;99.90;;;;;;2079072;28;19919;-68
2022/03/18 01:42:20;;;;;;;;;;;3.60;99.90;;;;;;2077879;28;20280;-68
2022/03/18 01:43:20;;;;;;;;;;;3.60;99.90;;;;;;2077063;28;20755;-68
2022/03/18 01:44:21;;;;;;;;;;;3.60;99.90;;;;;;2078297;28;20368;-68
2022/03/18 01:45:22;;;;;;;;;;;3.60;99.90;;;;;;2077282;28;19951;-68
2022/03/18 01:46:22;;;;;;;;;;;3.60;99.90;;;;;;2084113;28;19936;-68
2022/03/18 01:47:24;;;;;;;;;;;3.60;99.90;;;;;;2079226;28;19905;-68
2022/03/18 01:48:24;;;;;;;;;;;3.60;99.90;;;;;;2079679;28;19913;-68
2022/03/18 01:49:25;;;;;;;;;;;3.60;99.90;;;;;;2080987;28;19912;-69
2022/03/18 01:50:26;;;;;;;;;;;3.60;99.90;;;;;;2077347;28;19959;-69
2022/03/18 01:51:26;;;;;;;;;;;3.60;99.90;;;;;;2079422;28;20287;-69
2022/03/18 01:52:27;;;;;;;;;;;3.60;99.90;;;;;;2081447;28;19909;-69
2022/03/18 01:53:27;;;;;;;;;;;3.60;99.90;;;;;;2082077;28;19909;-69
2022/03/18 01:55:47;;;;;;;;;;;3.50;99.90;;;;;;2079901;28;20356;-68
2022/03/18 01:56:47;;;;;;;;;;;3.50;99.90;;;;;;2077321;28;20264;-68
2022/03/18 01:57:48;;;;;;;;;;;3.50;99.90;;;;;;2080915;28;19920;-68
2022/03/18 01:58:48;;;;;;;;;;;3.50;99.90;;;;;;2082077;28;19955;-68
2022/03/18 01:59:50;;;;;;;;;;;3.50;99.90;;;;;;2084739;28;20008;-68
2022/03/18 02:00:50;;;;;;;;;;;3.50;99.90;;;;;;2080925;28;19913;-68
2022/03/18 02:01:51;;;;;;;;;;;3.50;99.90;;;;;;2083856;28;19966;-68
2022/03/18 02:02:52;;;;;;;;;;;3.50;99.90;;;;;;2080640;28;20386;-68
2022/03/18 02:03:52;;;;;;;;;;;3.50;99.90;;;;;;2080497;28;20748;-68
2022/03/18 02:04:52;;;;;;;;;;;3.50;99.90;;;;;;2081676;28;20016;-68
2022/03/18 02:05:53;;;;;;;;;;;3.50;99.90;;;;;;2083440;28;19923;-68
2022/03/18 02:06:54;;;;;;;;;;;3.50;99.90;;;;;;2082014;28;20268;-68
2022/03/18 02:07:54;;;;;;;;;;;3.50;99.90;;;;;;2077026;28;19917;-68
2022/03/18 02:08:55;;;;;;;;;;;3.40;99.90;;;;;;2080839;28;19905;-68
2022/03/18 02:09:55;;;;;;;;;;;3.40;99.90;;;;;;2083528;28;20335;-68
2022/03/18 02:10:56;;;;;;;;;;;3.40;99.90;;;;;;2081966;28;19956;-68
2022/03/18 02:11:56;;;;;;;;;;;3.40;99.90;;;;;;2083006;28;19909;-68
2022/03/18 02:12:57;;;;;;;;;;;3.40;99.90;;;;;;2080777;28;20281;-68
2022/03/18 02:13:58;;;;;;;;;;;3.40;99.90;;;;;;2078619;28;19963;-68
2022/03/18 02:14:58;;;;;;;;;;;3.40;99.90;;;;;;2080774;28;19908;-68
2022/03/18 02:16:01;;;;;;;;;;;3.40;99.90;;;;;;2081506;28;19913;-68
2022/03/18 02:17:03;;;;;;;;;;;3.40;99.90;;;;;;2079438;28;19913;-68
2022/03/18 02:18:05;;;;;;;;;;;3.40;99.90;;;;;;2077916;28;19909;-68
2022/03/18 02:19:06;;;;;;;;;;;3.40;99.90;;;;;;2077337;28;19909;-68
2022/03/18 02:20:07;;;;;;;;;;;3.40;99.90;;;;;;2080535;28;19952;-68
2022/03/18 02:21:08;;;;;;;;;;;3.40;99.90;;;;;;2078635;28;19909;-68
2022/03/18 02:22:09;;;;;;;;;;;3.40;99.90;;;;;;2078214;28;19905;-68
2022/03/18 02:23:10;;;;;;;;;;;3.40;99.90;;;;;;2080817;28;19913;-68
2022/03/18 02:24:10;;;;;;;;;;;3.40;99.90;;;;;;2083023;28;20425;-68
2022/03/18 02:25:14;;;;;;;;;;;3.40;99.90;;;;;;2081813;28;19916;-68
2022/03/18 02:26:15;;;;;;;;;;;3.40;99.90;;;;;;2084165;28;21194;-68
2022/03/18 02:27:16;;;;;;;;;;;3.30;99.90;;;;;;2082278;28;20650;-68
2022/03/18 02:28:16;;;;;;;;;;;3.30;99.90;;;;;;2082098;28;19908;-68
2022/03/18 02:29:18;;;;;;;;;;;3.30;99.90;;;;;;2078846;28;19916;-68
2022/03/18 02:30:18;;;;;;;;;;;3.30;99.90;;;;;;2081340;28;19913;-68
2022/03/18 02:31:19;;;;;;;;;;;3.30;99.90;;;;;;2082823;28;20363;-68
2022/03/18 02:32:19;;;;;;;;;;;3.30;99.90;;;;;;2084060;28;19919;-68
2022/03/18 02:33:21;;;;;;;;;;;3.30;99.90;;;;;;2083033;28;19955;-68
2022/03/18 02:34:23;;;;;;;;;;;3.30;99.90;;;;;;2082611;28;19943;-68
2022/03/18 02:35:24;;;;;;;;;;;3.30;99.90;;;;;;2080219;28;19975;-68
2022/03/18 02:36:24;;;;;;;;;;;3.30;99.90;;;;;;2082525;28;19908;-68
2022/03/18 02:37:24;;;;;;;;;;;3.20;99.90;;;;;;2078662;28;19917;-68
2022/03/18 02:38:25;;;;;;;;;;;3.30;99.90;;;;;;2077331;28;19956;-68
2022/03/18 02:39:25;;;;;;;;;;;3.20;99.90;;;;;;2083889;28;19912;-68
2022/03/18 02:40:26;;;;;;;;;;;3.30;99.90;;;;;;2083343;28;19917;-68
2022/03/18 02:41:27;;;;;;;;;;;3.20;99.90;;;;;;2083715;28;20099;-68
2022/03/18 02:42:27;;;;;;;;;;;3.30;99.90;;;;;;2082162;28;20526;-68
2022/03/18 02:43:28;;;;;;;;;;;3.20;99.90;;;;;;2084182;28;19909;-68
2022/03/18 02:44:28;;;;;;;;;;;3.20;99.90;;;;;;2078948;28;19916;-68
2022/03/18 02:45:31;;;;;;;;;;;3.20;99.90;;;;;;2077062;28;19909;-68
2022/03/18 02:46:32;;;;;;;;;;;3.20;99.90;;;;;;2078053;28;19967;-68
2022/03/18 02:47:33;;;;;;;;;;;3.20;99.90;;;;;;2081725;28;20285;-68
2022/03/18 02:48:33;;;;;;;;;;;3.20;99.90;;;;;;2083168;28;20003;-68
2022/03/18 02:49:34;;;;;;;;;;;3.20;99.90;;;;;;2083955;28;19909;-68
2022/03/18 02:50:35;;;;;;;;;;;3.20;99.90;;;;;;2083119;28;19909;-68
2022/03/18 02:51:37;;;;;;;;;;;3.20;99.90;;;;;;2082571;28;20443;-68
2022/03/18 02:52:38;;;;;;;;;;;3.20;99.90;;;;;;2081002;28;19949;-68
2022/03/18 02:53:38;;;;;;;;;;;3.10;99.90;;;;;;2080610;28;19917;-68
2022/03/18 02:54:39;;;;;;;;;;;3.20;99.90;;;;;;2083565;28;19916;-68
2022/03/18 02:55:40;;;;;;;;;;;3.10;99.90;;;;;;2083690;28;19935;-68
2022/03/18 02:56:41;;;;;;;;;;;3.10;99.90;;;;;;2083290;28;19996;-68
2022/03/18 02:57:41;;;;;;;;;;;3.10;99.90;;;;;;2083773;28;19905;-69
2022/03/18 02:58:42;;;;;;;;;;;3.10;99.90;;;;;;2080537;28;19909;-69
2022/03/18 02:59:42;;;;;;;;;;;3.10;99.90;;;;;;2081584;28;20665;-69
2022/03/18 03:00:43;;;;;;;;;;;3.10;99.90;;;;;;2065135;28;19909;-69
2022/03/18 03:01:43;;;;;;;;;;;3.10;99.90;;;;;;2072575;28;19920;-69
2022/03/18 03:02:44;;;;;;;;;;;3.00;99.90;;;;;;2079848;28;19960;-69
2022/03/18 03:03:44;;;;;;;;;;;3.10;99.90;;;;;;2084008;28;20265;-69
2022/03/18 03:08:42;;;;;;;;;;;3.00;99.90;;;;;;2079809;28;20299;-69
2022/03/18 03:09:43;;;;;;;;;;;3.00;99.90;;;;;;2080761;28;19923;-68
2022/03/18 03:10:43;;;;;;;;;;;3.00;99.90;;;;;;2077890;28;19909;-68
2022/03/18 03:11:44;;;;;;;;;;;3.00;99.90;;;;;;2078118;28;19916;-68
2022/03/18 03:12:45;;;;;;;;;;;3.00;99.90;;;;;;2078700;28;19913;-68
2022/03/18 03:13:45;;;;;;;;;;;3.00;99.90;;;;;;2082972;28;20011;-68
2022/03/18 03:14:45;;;;;;;;;;;3.00;99.90;;;;;;2079548;28;19920;-68
2022/03/18 03:15:46;;;;;;;;;;;3.00;99.90;;;;;;2078457;28;20371;-68
2022/03/18 03:16:46;;;;;;;;;;;3.00;99.90;;;;;;2077645;28;19909;-68
2022/03/18 03:17:47;;;;;;;;;;;3.00;99.90;;;;;;2078931;28;20348;-68
2022/03/18 03:18:48;;;;;;;;;;;3.00;99.90;;;;;;2077839;28;20339;-68
2022/03/18 03:19:48;;;;;;;;;;;2.90;99.90;;;;;;2082159;28;19905;-68
2022/03/18 03:20:48;;;;;;;;;;;2.90;99.90;;;;;;2082464;28;19905;-68
2022/03/18 03:21:49;;;;;;;;;;;2.90;99.90;;;;;;2081838;28;19944;-68
2022/03/18 03:22:49;;;;;;;;;;;2.90;99.90;;;;;;2082075;28;20272;-68
2022/03/18 03:23:50;;;;;;;;;;;2.90;99.90;;;;;;2082734;28;19912;-68
2022/03/18 03:24:50;;;;;;;;;;;2.90;99.90;;;;;;2081520;28;19909;-68
2022/03/18 03:25:51;;;;;;;;;;;2.90;99.90;;;;;;2078977;28;20004;-68
2022/03/18 03:26:52;;;;;;;;;;;2.90;99.90;;;;;;2076870;28;19905;-68
2022/03/18 03:27:53;;;;;;;;;;;2.90;99.90;;;;;;2083016;28;19909;-68
2022/03/18 03:28:54;;;;;;;;;;;2.90;99.90;;;;;;2082215;28;19909;-68
2022/03/18 03:29:54;;;;;;;;;;;2.90;99.90;;;;;;2074983;28;19909;-68
2022/03/18 03:30:55;;;;;;;;;;;2.90;99.90;;;;;;2077977;28;19911;-68
2022/03/18 03:31:55;;;;;;;;;;;2.80;99.90;;;;;;2077488;28;20749;-68
2022/03/18 03:32:55;;;;;;;;;;;2.80;99.90;;;;;;2080350;28;20788;-68
2022/03/18 03:33:56;;;;;;;;;;;2.80;99.90;;;;;;2083837;28;19912;-68
2022/03/18 03:34:57;;;;;;;;;;;2.80;99.90;;;;;;2080155;28;19913;-68
2022/03/18 03:35:57;;;;;;;;;;;2.80;99.90;;;;;;2083562;28;19905;-68
2022/03/18 03:36:58;;;;;;;;;;;2.80;99.90;;;;;;2081430;28;19920;-68
2022/03/18 03:37:59;;;;;;;;;;;2.80;99.90;;;;;;2078438;28;19924;-68
2022/03/18 03:38:59;;;;;;;;;;;2.80;99.90;;;;;;2079884;28;19923;-68
2022/03/18 03:40:00;;;;;;;;;;;2.70;99.90;;;;;;2077826;28;19975;-68
2022/03/18 03:41:00;;;;;;;;;;;2.80;99.90;;;;;;2080653;28;20408;-68
2022/03/18 03:42:00;;;;;;;;;;;2.70;99.90;;;;;;2081457;28;19912;-68
2022/03/18 03:43:01;;;;;;;;;;;2.70;99.90;;;;;;2080713;28;20422;-68
2022/03/18 03:44:01;;;;;;;;;;;2.70;99.90;;;;;;2082876;28;20027;-68
2022/03/18 03:45:02;;;;;;;;;;;2.70;99.90;;;;;;2081840;28;19909;-68
2022/03/18 03:46:02;;;;;;;;;;;2.70;99.90;;;;;;2081416;28;19912;-68
2022/03/18 03:47:03;;;;;;;;;;;2.70;99.90;;;;;;2079660;28;19912;-68
2022/03/18 03:48:04;;;;;;;;;;;2.70;99.90;;;;;;2078660;28;20392;-68
2022/03/18 03:49:05;;;;;;;;;;;2.80;99.90;;;;;;2080429;28;20451;-68
2022/03/18 03:50:06;;;;;;;;;;;2.80;99.90;;;;;;2073505;28;20610;-68
2022/03/18 03:51:07;;;;;;;;;;;2.80;99.90;;;;;;2077735;28;20441;-68
2022/03/18 03:52:08;;;;;;;;;;;2.80;99.90;;;;;;2080341;28;20347;-68
2022/03/18 03:53:09;;;;;;;;;;;2.80;99.90;;;;;;2078996;28;19924;-68
2022/03/18 03:54:10;;;;;;;;;;;2.80;99.90;;;;;;2082379;28;19909;-68
2022/03/18 03:55:12;;;;;;;;;;;2.80;99.90;;;;;;2077910;28;20000;-68
2022/03/18 03:56:12;;;;;;;;;;;2.80;99.90;;;;;;2078117;28;20380;-68
2022/03/18 03:57:13;;;;;;;;;;;2.80;99.90;;;;;;2079712;28;19909;-68
2022/03/18 03:58:14;;;;;;;;;;;2.80;99.90;;;;;;2079008;28;19916;-68
2022/03/18 03:59:14;;;;;;;;;;;2.80;99.90;;;;;;2082611;28;19996;-68
2022/03/18 04:00:16;;;;;;;;;;;2.90;99.90;;;;;;2082996;28;20000;-68
2022/03/18 04:01:16;;;;;;;;;;;2.90;99.90;;;;;;2079336;28;19916;-68
2022/03/18 04:02:20;;;;;;;;;;;2.90;99.90;;;;;;2082155;28;19913;-68
2022/03/18 04:03:20;;;;;;;;;;;3.00;99.90;;;;;;2079271;28;20005;-68
2022/03/18 04:04:21;;;;;;;;;;;3.00;99.90;;;;;;2081058;28;19937;-68
2022/03/18 04:05:21;;;;;;;;;;;3.00;99.90;;;;;;2079118;28;19911;-68
2022/03/18 04:06:22;;;;;;;;;;;3.00;99.90;;;;;;2081411;28;19921;-68
2022/03/18 04:07:22;;;;;;;;;;;3.00;99.90;;;;;;2079453;28;19919;-68
2022/03/18 04:08:23;;;;;;;;;;;3.00;99.90;;;;;;2079603;28;19905;-68
2022/03/18 04:09:23;;;;;;;;;;;3.00;99.90;;;;;;2081175;28;19955;-68
2022/03/18 04:10:24;;;;;;;;;;;3.00;99.90;;;;;;2081923;28;20389;-68
2022/03/18 04:11:24;;;;;;;;;;;3.00;99.90;;;;;;2078865;28;20004;-68
2022/03/18 04:12:25;;;;;;;;;;;3.00;99.90;;;;;;2080222;28;19920;-68
2022/03/18 04:13:25;;;;;;;;;;;3.00;99.90;;;;;;2077540;28;19905;-68
2022/03/18 04:14:26;;;;;;;;;;;3.00;99.90;;;;;;2080035;28;19936;-68
2022/03/18 04:15:26;;;;;;;;;;;3.00;99.90;;;;;;2082852;28;19974;-68
2022/03/18 04:16:27;;;;;;;;;;;3.00;99.90;;;;;;2079887;28;20012;-68
2022/03/18 04:17:35;;;;;;;;;;;3.00;99.90;;;;;;2080574;28;20306;-68
2022/03/18 04:18:35;;;;;;;;;;;3.00;99.90;;;;;;2081790;28;19909;-68
2022/03/18 04:19:36;;;;;;;;;;;3.00;99.90;;;;;;2079064;28;19909;-68
2022/03/18 04:20:36;;;;;;;;;;;3.00;99.90;;;;;;2081770;28;19916;-68
2022/03/18 04:21:37;;;;;;;;;;;2.90;99.90;;;;;;2081063;28;20245;-68
2022/03/18 04:22:38;;;;;;;;;;;3.00;99.90;;;;;;2082878;28;19977;-68
2022/03/18 04:23:38;;;;;;;;;;;2.90;99.90;;;;;;2082985;28;20307;-68
2022/03/18 04:24:39;;;;;;;;;;;3.00;99.90;;;;;;2074883;28;19913;-68
2022/03/18 04:25:40;;;;;;;;;;;2.90;99.90;;;;;;2078888;28;19909;-68
2022/03/18 04:26:41;;;;;;;;;;;2.90;99.90;;;;;;2078107;28;19956;-68
2022/03/18 04:27:42;;;;;;;;;;;2.90;99.90;;;;;;2078310;28;19908;-68
2022/03/18 04:28:43;;;;;;;;;;;2.90;99.90;;;;;;2077288;28;19916;-68
2022/03/18 04:29:44;;;;;;;;;;;2.90;99.90;;;;;;2080226;28;20279;-68
2022/03/18 04:30:44;;;;;;;;;;;2.90;99.90;;;;;;2079831;28;19913;-68
2022/03/18 04:31:45;;;;;;;;;;;2.90;99.90;;;;;;2079263;28;20287;-68
2022/03/18 04:32:46;;;;;;;;;;;2.90;99.90;;;;;;2078637;28;20430;-68
2022/03/18 04:33:46;;;;;;;;;;;2.90;99.90;;;;;;2078280;28;20351;-68
2022/03/18 04:34:47;;;;;;;;;;;2.90;99.90;;;;;;2079868;28;19956;-68
2022/03/18 04:35:47;;;;;;;;;;;2.90;99.90;;;;;;2078836;28;19920;-68
2022/03/18 04:36:47;;;;;;;;;;;2.90;99.90;;;;;;2077443;28;20031;-68
2022/03/18 04:37:48;;;;;;;;;;;2.80;99.90;;;;;;2079813;28;19909;-68
2022/03/18 04:38:48;;;;;;;;;;;2.80;99.90;;;;;;2080026;28;19911;-68
2022/03/18 04:39:49;;;;;;;;;;;2.90;99.90;;;;;;2081382;28;19920;-68
2022/03/18 04:40:49;;;;;;;;;;;2.80;99.90;;;;;;2081511;28;19912;-68
2022/03/18 04:41:50;;;;;;;;;;;2.80;99.90;;;;;;2079881;28;19956;-68
2022/03/18 04:42:50;;;;;;;;;;;2.80;99.90;;;;;;2079100;28;20505;-68
2022/03/18 04:43:51;;;;;;;;;;;2.80;99.90;;;;;;2080147;28;19924;-68
2022/03/18 04:44:51;;;;;;;;;;;2.80;99.90;;;;;;2077181;28;20515;-68
2022/03/18 04:45:52;;;;;;;;;;;2.80;99.90;;;;;;2078832;28;19966;-68
2022/03/18 04:46:52;;;;;;;;;;;2.80;99.90;;;;;;2079114;28;19915;-68
2022/03/18 04:47:54;;;;;;;;;;;2.80;99.90;;;;;;2078487;28;19909;-68
2022/03/18 04:48:55;;;;;;;;;;;2.80;99.90;;;;;;2076013;28;19995;-68
2022/03/18 04:49:55;;;;;;;;;;;2.70;99.90;;;;;;2077484;28;19908;-68
2022/03/18 04:50:57;;;;;;;;;;;2.70;99.90;;;;;;2077341;28;20332;-68
2022/03/18 04:51:57;;;;;;;;;;;2.70;99.90;;;;;;2080710;28;19909;-68
2022/03/18 04:52:58;;;;;;;;;;;2.70;99.90;;;;;;2076344;28;19912;-68
2022/03/18 04:53:58;;;;;;;;;;;2.70;99.90;;;;;;2079798;28;19909;-68
2022/03/18 04:54:59;;;;;;;;;;;2.70;99.90;;;;;;2083200;28;19984;-68
2022/03/18 04:55:59;;;;;;;;;;;2.70;99.90;;;;;;2080551;28;19920;-68
2022/03/18 04:58:18;;;;;;;;;;;2.70;99.90;;;;;;2078278;28;19904;-68
2022/03/18 04:59:19;;;;;;;;;;;2.70;99.90;;;;;;2080777;28;19913;-68
2022/03/18 05:00:24;;;;;;;;;;;2.70;99.90;;;;;;2078369;28;19909;-68
2022/03/18 05:01:26;;;;;;;;;;;2.70;99.90;;;;;;2075812;28;19963;-68
2022/03/18 05:02:26;;;;;;;;;;;2.60;99.90;;;;;;2079481;28;20423;-68
2022/03/18 05:03:27;;;;;;;;;;;2.70;99.90;;;;;;2080665;28;20652;-68
2022/03/18 05:04:27;;;;;;;;;;;2.60;99.90;;;;;;2080665;28;19916;-68
2022/03/18 05:05:28;;;;;;;;;;;2.60;99.90;;;;;;2079234;28;19916;-68
2022/03/18 05:06:28;;;;;;;;;;;2.60;99.90;;;;;;2080766;28;20438;-68
2022/03/18 05:07:29;;;;;;;;;;;2.60;99.90;;;;;;2079281;28;20003;-68
2022/03/18 05:08:30;;;;;;;;;;;2.60;99.90;;;;;;2077736;28;20331;-68
2022/03/18 05:09:30;;;;;;;;;;;2.60;99.90;;;;;;2076393;28;20622;-68
2022/03/18 05:10:31;;;;;;;;;;;2.60;99.90;;;;;;2082475;28;19908;-68
2022/03/18 05:11:31;;;;;;;;;;;2.60;99.90;;;;;;2078968;28;19960;-68
2022/03/18 05:12:32;;;;;;;;;;;2.60;99.90;;;;;;2079265;28;19923;-68
2022/03/18 05:13:33;;;;;;;;;;;2.60;99.90;;;;;;2079559;28;20514;-68
2022/03/18 05:14:35;;;;;;;;;;;2.60;99.90;;;;;;2077750;28;19919;-68
2022/03/18 05:15:35;;;;;;;;;;;2.50;99.90;;;;;;2078768;28;20384;-68
2022/03/18 05:16:36;;;;;;;;;;;2.50;99.90;;;;;;2076407;28;20324;-68
2022/03/18 05:17:37;;;;;;;;;;;2.50;99.90;;;;;;2081250;28;19909;-68
2022/03/18 05:18:38;;;;;;;;;;;2.50;99.90;;;;;;2082675;28;20526;-68
2022/03/18 05:19:38;;;;;;;;;;;2.50;99.90;;;;;;2079968;28;20287;-68
2022/03/18 05:20:39;;;;;;;;;;;2.50;99.90;;;;;;2080472;28;19908;-68
2022/03/18 05:21:39;;;;;;;;;;;2.50;99.90;;;;;;2081075;28;19916;-68
2022/03/18 05:22:40;;;;;;;;;;;2.50;99.90;;;;;;2079538;28;19917;-68
2022/03/18 05:23:40;;;;;;;;;;;2.50;99.90;;;;;;2079658;28;20463;-68
2022/03/18 05:24:41;;;;;;;;;;;2.50;99.90;;;;;;2077443;28;19940;-68
2022/03/18 05:25:41;;;;;;;;;;;2.50;99.90;;;;;;2082686;28;19913;-68
2022/03/18 05:26:42;;;;;;;;;;;2.50;99.90;;;;;;2082734;28;19909;-68
2022/03/18 05:27:43;;;;;;;;;;;2.50;99.90;;;;;;2080647;28;19979;-68
2022/03/18 05:28:43;;;;;;;;;;;2.50;99.90;;;;;;2079981;28;19905;-68
2022/03/18 05:29:44;;;;;;;;;;;2.40;99.90;;;;;;2080091;28;19909;-68
2022/03/18 05:30:45;;;;;;;;;;;2.40;99.90;;;;;;2084050;28;19937;-68
2022/03/18 05:31:46;;;;;;;;;;;2.40;99.90;;;;;;2079406;28;19909;-68
2022/03/18 05:32:46;;;;;;;;;;;2.40;99.90;;;;;;2081363;28;20348;-68
2022/03/18 05:33:47;;;;;;;;;;;2.40;99.90;;;;;;2084362;28;19915;-68
2022/03/18 05:34:47;;;;;;;;;;;2.40;99.90;;;;;;2079935;28;20008;-68
2022/03/18 05:35:48;;;;;;;;;;;2.40;99.90;;;;;;2073915;28;19905;-68
2022/03/18 05:36:49;;;;;;;;;;;2.40;99.90;;;;;;2077270;28;20372;-68
2022/03/18 05:37:49;;;;;;;;;;;2.40;99.90;;;;;;2077185;28;20004;-68
2022/03/18 05:38:50;;;;;;;;;;;2.40;99.90;;;;;;2075252;28;19910;-68
2022/03/18 05:39:50;;;;;;;;;;;2.40;99.90;;;;;;2031836;28;1298330;-68
2022/03/18 05:40:51;;;;;;;;;;;2.40;99.90;;;;;;2075119;28;19913;-68
2022/03/18 05:41:52;;;;;;;;;;;2.40;99.90;;;;;;2072521;28;20346;-68
2022/03/18 05:42:52;;;;;;;;;;;2.40;99.90;;;;;;2075505;28;20272;-68
2022/03/18 05:43:53;;;;;;;;;;;2.30;99.90;;;;;;2078057;28;19920;-68
2022/03/18 05:44:53;;;;;;;;;;;2.30;99.90;;;;;;2073144;28;19909;-68
2022/03/18 05:45:54;;;;;;;;;;;2.40;99.90;;;;;;2072577;28;19913;-68
2022/03/18 05:46:55;;;;;;;;;;;2.40;99.90;;;;;;2076082;28;20030;-68
2022/03/18 05:47:56;;;;;;;;;;;2.40;99.90;;;;;;2076774;28;19913;-68
2022/03/18 05:48:56;;;;;;;;;;;2.30;99.90;;;;;;2073856;28;19909;-68
2022/03/18 05:50:01;;;;;;;;;;;2.30;99.90;;;;;;2075170;28;19994;-68
2022/03/18 05:51:02;;;;;;;;;;;2.30;99.90;;;;;;2075507;28;19917;-68
2022/03/18 05:52:02;;;;;;;;;;;2.30;99.90;;;;;;2076930;28;19916;-68
2022/03/18 05:53:03;;;;;;;;;;;2.30;99.90;;;;;;2074660;28;19909;-68
2022/03/18 05:54:03;;;;;;;;;;;2.20;99.90;;;;;;2076280;28;19913;-68
2022/03/18 05:55:04;;;;;;;;;;;2.30;99.90;;;;;;2080387;28;19905;-68
2022/03/18 05:57:26;;;;;;;;;;;2.30;99.90;;;;;;2079182;28;19952;-68
2022/03/18 05:58:27;;;;;;;;;;;2.30;99.90;;;;;;2075317;28;19909;-68
2022/03/18 05:59:28;;;;;;;;;;;2.20;99.90;;;;;;2077646;28;19915;-68
2022/03/18 06:00:30;;;;;;;;;;;2.20;99.90;;;;;;2076176;28;19912;-68
2022/03/18 06:01:31;;;;;;;;;;;2.20;99.90;;;;;;2075645;28;19905;-68
2022/03/18 06:02:33;;;;;;;;;;;2.20;99.90;;;;;;2078556;28;19908;-68
2022/03/18 06:03:33;;;;;;;;;;;2.20;99.90;;;;;;2075503;28;19963;-68
2022/03/18 06:04:34;;;;;;;;;;;2.20;99.90;;;;;;2074973;28;20415;-68
2022/03/18 06:05:35;;;;;;;;;;;2.20;99.90;;;;;;2077797;28;19992;-68
2022/03/18 06:06:35;;;;;;;;;;;2.20;99.90;;;;;;2076719;28;20023;-68
2022/03/18 06:07:36;;;;;;;;;;;2.20;99.90;;;;;;2077547;28;20517;-68
2022/03/18 06:12:34;;;;;;;;;;;2.20;99.90;;;;;;2077718;28;19913;-68
2022/03/18 06:13:34;;;;;;;;;;;2.20;99.90;;;;;;2074558;28;19924;-68
2022/03/18 06:14:35;;;;;;;;;;;2.20;99.90;;;;;;2074517;28;19913;-68
2022/03/18 06:15:36;;;;;;;;;;;2.20;99.90;;;;;;2073777;28;19909;-68
2022/03/18 06:16:37;;;;;;;;;;;2.20;99.90;;;;;;2080210;28;20639;-69